Terminal Aerodrome Forecast
Issued by NWS

Home | Current Version | Previous Version | Text Only | Print | Product List | Glossary On
Versions: 1 2 3 4 5 6 7 8 9 10 11 12 13 14 15 16 17 18 19 20 21 22 23 24 25 26 27 28 29 30 31 32 33 34 35 36 37 38 39 40 41 42
000
FTUS41 KBOX 242339
TAFACK
TAF
KACK 242339Z 2500/2524 19010KT P6SM BKN035
     FM250300 19012G22KT 5SM BR SCT025 BKN040
     FM250900 17008KT 1/2SM FG SCT012 OVC020
     FM251400 14012G21KT 5SM BR BKN020
     FM251600 14014G22KT P6SM BKN020
     FM252100 13015G27KT 1SM BR OVC001
     FM252300 13011G26KT 1 1/2SM BR VCSH OVC001=

USA.gov is the U.S. government's official web portal to all federal, state and local government web resources and services.